createdAt,value
2018-12-19T00:02:09.609Z,23.57
2018-12-19T00:04:43.620Z,21.83
2018-12-19T00:07:17.468Z,21.60
2018-12-19T00:09:51.314Z,25.00
2018-12-19T00:12:25.387Z,22.97
2018-12-19T00:14:59.401Z,24.23
2018-12-19T00:17:33.384Z,22.90
2018-12-19T00:20:07.588Z,24.37
2018-12-19T00:22:41.620Z,24.70
2018-12-19T00:25:15.573Z,24.53
2018-12-19T00:27:49.425Z,23.90
2018-12-19T00:30:23.443Z,22.30
2018-12-19T00:32:57.440Z,25.80
2018-12-19T00:35:31.311Z,23.33
2018-12-19T00:38:05.158Z,23.40
2018-12-19T00:40:38.999Z,22.20
2018-12-19T00:43:13.105Z,23.90
2018-12-19T00:45:47.063Z,21.60
2018-12-19T00:48:21.061Z,22.73
2018-12-19T00:50:55.048Z,22.40
2018-12-19T00:53:29.132Z,21.57
2018-12-19T00:56:03.003Z,20.30
2018-12-19T00:58:36.846Z,25.43
2018-12-19T01:01:10.839Z,21.10
2018-12-19T01:03:44.796Z,23.60
2018-12-19T01:06:19.107Z,25.50
2018-12-19T01:08:53.150Z,23.43
2018-12-19T01:11:27.134Z,25.67
2018-12-19T01:14:01.219Z,23.80
2018-12-19T01:16:35.110Z,24.90
2018-12-19T01:19:09.085Z,23.17
2018-12-19T01:21:43.149Z,19.87
2018-12-19T01:24:17.236Z,21.80
2018-12-19T01:26:51.155Z,22.17
2018-12-19T01:29:25.232Z,23.47
2018-12-19T01:31:59.344Z,24.30
2018-12-19T01:34:33.243Z,24.83
2018-12-19T01:37:07.151Z,24.93
2018-12-19T01:39:41.151Z,25.20
2018-12-19T01:42:15.266Z,25.30
2018-12-19T01:44:49.199Z,26.80
2018-12-19T01:47:23.325Z,25.43
2018-12-19T01:49:57.193Z,28.17
2018-12-19T01:52:31.153Z,27.87
2018-12-19T01:55:05.353Z,27.47
2018-12-19T01:57:39.341Z,24.77
2018-12-19T02:00:13.361Z,24.67
2018-12-19T02:02:47.293Z,24.70
2018-12-19T02:05:21.235Z,21.73
2018-12-19T02:07:55.145Z,21.63
2018-12-19T02:10:29.121Z,23.80
2018-12-19T02:13:03.171Z,22.83
2018-12-19T02:15:37.159Z,20.60
2018-12-19T02:18:11.178Z,18.30
2018-12-19T02:20:45.196Z,19.20
2018-12-19T02:23:19.012Z,19.00
2018-12-19T02:25:52.956Z,13.57
2018-12-19T02:28:26.965Z,16.33
2018-12-19T02:31:00.913Z,15.03
2018-12-19T02:33:34.906Z,14.87
2018-12-19T02:36:08.938Z,11.40
2018-12-19T02:38:42.904Z,12.80
2018-12-19T02:41:16.975Z,13.77
2018-12-19T02:43:50.840Z,13.37
2018-12-19T02:46:24.777Z,14.30
2018-12-19T02:48:58.818Z,14.70
2018-12-19T02:51:32.830Z,15.50
2018-12-19T02:54:06.652Z,13.77
2018-12-19T02:56:40.635Z,16.53
2018-12-19T02:59:14.503Z,16.80
2018-12-19T03:01:48.458Z,15.50
2018-12-19T03:04:22.381Z,16.00
2018-12-19T03:06:56.328Z,17.07
2018-12-19T03:09:30.327Z,15.60
2018-12-19T03:12:04.275Z,17.93
2018-12-19T03:14:38.249Z,16.03
2018-12-19T03:17:12.289Z,16.57
2018-12-19T03:19:46.272Z,16.17
2018-12-19T03:22:20.229Z,15.27
2018-12-19T03:24:54.070Z,16.80
2018-12-19T03:27:28.030Z,18.80
2018-12-19T03:30:02.008Z,17.90
2018-12-19T03:32:35.993Z,17.17
2018-12-19T03:35:09.853Z,19.63
2018-12-19T03:37:43.813Z,19.60
2018-12-19T03:40:17.816Z,18.47
2018-12-19T03:42:51.832Z,16.80
2018-12-19T03:45:25.793Z,17.23
2018-12-19T03:47:59.723Z,17.63
2018-12-19T03:50:33.685Z,17.53
2018-12-19T03:53:07.647Z,18.60
2018-12-19T03:55:41.712Z,16.27
2018-12-19T03:58:15.751Z,16.40
2018-12-19T04:00:50.038Z,20.00
2018-12-19T04:03:24.151Z,16.73
2018-12-19T04:05:58.072Z,18.40
2018-12-19T04:08:32.102Z,18.70
2018-12-19T04:11:06.130Z,21.47
2018-12-19T04:13:40.152Z,18.83
2018-12-19T04:16:14.162Z,21.17
2018-12-19T04:18:48.141Z,22.37
2018-12-19T04:21:22.095Z,20.67
2018-12-19T04:23:56.109Z,23.10
2018-12-19T04:26:30.063Z,19.70
2018-12-19T04:29:04.146Z,17.77
2018-12-19T04:31:37.959Z,18.40
2018-12-19T04:34:12.060Z,20.40
2018-12-19T04:36:46.018Z,21.67
2018-12-19T04:39:20.075Z,17.20
2018-12-19T04:41:54.105Z,16.77
2018-12-19T04:44:28.075Z,20.03
2018-12-19T04:47:02.096Z,17.60
2018-12-19T04:49:36.085Z,21.60
2018-12-19T04:52:10.139Z,20.30
2018-12-19T04:54:43.997Z,16.87
2018-12-19T04:57:18.061Z,16.70
2018-12-19T04:59:52.058Z,16.40
2018-12-19T05:02:26.076Z,19.27
2018-12-19T05:05:00.113Z,13.87
2018-12-19T05:07:34.593Z,13.73
2018-12-19T05:10:12.247Z,14.20
2018-12-19T05:12:44.655Z,14.40
2018-12-19T05:15:18.667Z,13.57
2018-12-19T05:17:52.805Z,12.60
2018-12-19T05:20:26.913Z,13.20
2018-12-19T05:23:00.882Z,19.40
2018-12-19T05:25:34.870Z,14.67
2018-12-19T05:28:08.874Z,14.53
2018-12-19T05:30:42.835Z,14.73
2018-12-19T05:33:16.684Z,13.73
2018-12-19T05:35:50.659Z,10.27
2018-12-19T05:38:24.671Z,11.63
2018-12-19T05:40:58.649Z,12.07
2018-12-19T05:43:32.584Z,8.77
2018-12-19T05:46:06.580Z,9.60
2018-12-19T05:48:40.565Z,8.80
2018-12-19T05:51:14.558Z,10.97
2018-12-19T05:53:48.640Z,8.80
2018-12-19T05:56:22.706Z,8.17
2018-12-19T05:58:56.629Z,7.50
2018-12-19T06:01:30.499Z,6.83
2018-12-19T06:04:04.340Z,7.70
2018-12-19T06:06:38.322Z,6.40
2018-12-19T06:09:12.311Z,8.40
2018-12-19T06:11:46.338Z,8.13
2018-12-19T06:14:20.421Z,7.33
2018-12-19T06:16:54.410Z,6.93
2018-12-19T06:19:28.407Z,7.63
2018-12-19T06:22:02.292Z,7.27
2018-12-19T06:24:36.229Z,6.27
2018-12-19T06:27:10.295Z,8.23
2018-12-19T06:29:44.286Z,7.07
2018-12-19T06:32:18.353Z,6.90
2018-12-19T06:34:52.412Z,7.70
2018-12-19T06:37:26.923Z,6.37
2018-12-19T06:40:00.951Z,5.73
2018-12-19T06:42:35.144Z,6.67
2018-12-19T06:45:09.282Z,12.83
2018-12-19T06:47:43.288Z,7.43
2018-12-19T06:50:17.633Z,6.60
2018-12-19T06:52:51.694Z,8.37
2018-12-19T06:55:25.649Z,8.00
2018-12-19T06:57:59.828Z,8.27
2018-12-19T07:00:33.929Z,8.30
2018-12-19T07:03:08.105Z,9.17
2018-12-19T07:05:42.440Z,6.17
2018-12-19T07:11:18.257Z,6.93
2018-12-19T07:13:52.232Z,6.40
2018-12-19T07:16:26.413Z,6.50
2018-12-19T07:19:00.552Z,6.43
2018-12-19T07:21:34.916Z,6.90
2018-12-19T07:24:08.920Z,5.20
2018-12-19T07:26:43.155Z,5.83
2018-12-19T07:29:17.360Z,6.57
2018-12-19T07:31:51.532Z,5.77
2018-12-19T07:34:25.602Z,5.60
2018-12-19T07:36:59.886Z,6.70
2018-12-19T07:39:34.062Z,4.67
2018-12-19T07:42:09.250Z,7.27
2018-12-19T07:44:43.389Z,5.37
2018-12-19T07:47:17.547Z,5.83
2018-12-19T07:49:52.982Z,6.07
2018-12-19T07:52:27.360Z,5.70
2018-12-19T07:55:01.637Z,6.10
2018-12-19T07:57:36.209Z,8.83
2018-12-19T08:00:11.044Z,6.10
2018-12-19T08:02:45.259Z,10.37
2018-12-19T08:05:25.928Z,74.43
2018-12-19T08:07:56.181Z,11.63
2018-12-19T08:10:30.153Z,7.23
2018-12-19T08:13:04.579Z,7.37
2018-12-19T08:15:38.641Z,6.67
2018-12-19T08:18:12.668Z,7.77
2018-12-19T08:20:46.776Z,7.97
2018-12-19T08:23:21.174Z,6.83
2018-12-19T08:25:55.279Z,6.27
2018-12-19T08:28:29.267Z,5.30
2018-12-19T08:31:03.343Z,7.40
2018-12-19T08:33:37.504Z,5.47
2018-12-19T08:36:11.594Z,5.60
2018-12-19T08:38:45.977Z,6.63
2018-12-19T08:41:20.208Z,5.60
2018-12-19T08:43:55.236Z,7.17
2018-12-19T08:46:29.555Z,5.70
2018-12-19T08:49:04.812Z,9.37
2018-12-19T08:51:39.342Z,6.23
2018-12-19T08:54:13.552Z,6.47
2018-12-19T08:56:47.714Z,5.90
2018-12-19T08:59:21.910Z,9.23
2018-12-19T09:01:55.994Z,8.63
2018-12-19T09:04:30.139Z,13.30
2018-12-19T09:07:04.398Z,7.17
2018-12-19T09:09:38.544Z,6.57
2018-12-19T09:12:12.679Z,13.30
2018-12-19T09:14:47.881Z,9.03
2018-12-19T09:17:22.187Z,16.23
2018-12-19T09:19:57.026Z,12.33
2018-12-19T09:22:31.119Z,9.83
2018-12-19T09:25:05.443Z,10.90
2018-12-19T09:27:39.873Z,6.70
2018-12-19T09:30:14.023Z,9.87
2018-12-19T09:32:48.222Z,9.83
2018-12-19T09:35:22.563Z,8.43
2018-12-19T09:37:56.860Z,7.43
2018-12-19T09:40:31.293Z,8.17
2018-12-19T09:43:05.579Z,7.23
2018-12-19T09:45:39.805Z,6.33
2018-12-19T09:48:14.103Z,6.70
2018-12-19T09:50:55.100Z,8.60
2018-12-19T09:53:29.523Z,9.10
2018-12-19T09:56:04.184Z,7.97
2018-12-19T09:58:38.538Z,7.97
2018-12-19T10:01:13.814Z,6.23
2018-12-19T10:03:48.024Z,6.23
2018-12-19T10:06:22.436Z,6.47
2018-12-19T10:08:56.731Z,6.27
2018-12-19T10:11:31.020Z,39.33
2018-12-19T10:14:05.456Z,6.33
2018-12-19T10:16:39.699Z,6.80
2018-12-19T10:19:14.115Z,5.50
2018-12-19T10:21:48.746Z,5.60
2018-12-19T10:24:27.512Z,8.50
2018-12-19T10:27:02.257Z,8.10
2018-12-19T10:29:36.455Z,7.67
2018-12-19T10:32:10.808Z,8.70
2018-12-19T10:34:45.191Z,7.37
2018-12-19T10:37:19.536Z,6.30
2018-12-19T10:39:54.087Z,6.50
2018-12-19T10:42:28.723Z,9.17
2018-12-19T10:45:03.153Z,5.50
2018-12-19T10:47:37.554Z,6.60
2018-12-19T10:50:13.831Z,6.17
2018-12-19T10:52:48.092Z,7.20
2018-12-19T10:55:22.325Z,8.07
2018-12-19T10:57:56.590Z,7.20
2018-12-19T11:00:36.384Z,5.87
2018-12-19T11:03:10.446Z,9.50
2018-12-19T11:05:44.858Z,9.20
2018-12-19T11:08:20.247Z,10.00
2018-12-19T11:10:54.817Z,11.07
2018-12-19T11:13:29.132Z,8.90
2018-12-19T11:16:03.475Z,8.43
2018-12-19T11:18:37.699Z,9.67
2018-12-19T11:21:12.605Z,11.73
2018-12-19T11:23:46.989Z,7.50
2018-12-19T11:26:21.278Z,4.83
2018-12-19T11:28:55.879Z,6.93
2018-12-19T11:31:30.214Z,10.23
2018-12-19T11:34:04.606Z,9.47
2018-12-19T11:36:38.993Z,6.37
2018-12-19T11:39:13.478Z,7.17
2018-12-19T11:41:47.733Z,8.40
2018-12-19T11:44:21.964Z,4.73
2018-12-19T11:46:56.369Z,7.27
2018-12-19T11:49:30.649Z,6.17
2018-12-19T11:52:04.799Z,4.83
2018-12-19T11:54:39.962Z,5.77
2018-12-19T11:57:14.692Z,7.90
2018-12-19T11:59:49.557Z,11.17
2018-12-19T12:02:23.819Z,7.90
2018-12-19T12:05:01.142Z,8.07
2018-12-19T12:07:36.445Z,6.07
2018-12-19T12:10:13.984Z,6.10
2018-12-19T12:12:48.359Z,9.40
2018-12-19T12:15:22.884Z,12.13
2018-12-19T12:17:57.403Z,8.70
2018-12-19T12:20:31.770Z,7.70
2018-12-19T12:23:06.240Z,10.50
2018-12-19T12:25:40.944Z,44.73
2018-12-19T12:28:15.048Z,8.53
2018-12-19T12:30:50.685Z,8.50
2018-12-19T12:33:24.865Z,8.43
2018-12-19T12:36:00.282Z,8.93
2018-12-19T12:38:35.176Z,10.47
2018-12-19T12:41:09.666Z,12.27
2018-12-19T12:43:44.146Z,8.70
2018-12-19T12:46:18.379Z,10.10
2018-12-19T12:48:53.324Z,11.70
2018-12-19T12:51:28.092Z,12.90
2018-12-19T12:54:02.543Z,11.43
2018-12-19T12:56:36.767Z,13.47
2018-12-19T12:59:11.042Z,10.17
2018-12-19T13:01:45.360Z,11.77
2018-12-19T13:04:19.573Z,9.60
2018-12-19T13:06:53.891Z,9.00
2018-12-19T13:09:29.130Z,10.90
2018-12-19T13:12:03.471Z,9.20
2018-12-19T13:14:38.249Z,8.80
2018-12-19T13:17:12.526Z,9.47
2018-12-19T13:19:46.691Z,9.27
2018-12-19T13:22:20.844Z,9.10
2018-12-19T13:24:54.984Z,9.43
2018-12-19T13:27:29.612Z,10.70
2018-12-19T13:30:04.337Z,11.17
2018-12-19T13:32:38.489Z,9.60
2018-12-19T13:35:14.405Z,8.70
2018-12-19T13:37:48.681Z,7.07
2018-12-19T13:40:25.073Z,9.00
2018-12-19T13:45:55.856Z,7.80
2018-12-19T13:48:30.405Z,6.80
2018-12-19T13:51:04.563Z,8.07
2018-12-19T13:53:38.983Z,8.13
2018-12-19T13:56:13.465Z,8.00
2018-12-19T13:58:48.610Z,6.60
2018-12-19T14:01:22.903Z,7.30
2018-12-19T14:03:57.281Z,8.53
2018-12-19T14:06:31.597Z,8.60
2018-12-19T14:09:08.469Z,8.00
2018-12-19T14:11:42.962Z,9.43
2018-12-19T14:14:17.513Z,8.97
2018-12-19T14:16:53.301Z,7.50
2018-12-19T14:19:27.565Z,8.53
2018-12-19T14:22:01.864Z,8.20
2018-12-19T14:24:38.826Z,8.50
2018-12-19T14:27:13.011Z,8.57
2018-12-19T14:29:47.343Z,8.57
2018-12-19T14:32:23.516Z,7.60
2018-12-19T14:35:00.655Z,8.00
2018-12-19T14:37:37.992Z,6.87
2018-12-19T14:40:14.088Z,8.90
2018-12-19T14:42:48.320Z,7.97
2018-12-19T14:45:23.273Z,6.13
2018-12-19T14:47:57.643Z,8.23
2018-12-19T14:50:31.792Z,7.27
2018-12-19T14:53:07.016Z,8.97
2018-12-19T14:55:41.668Z,7.90
2018-12-19T14:58:15.838Z,7.60
2018-12-19T15:00:50.791Z,7.53
2018-12-19T15:03:28.514Z,6.83
2018-12-19T15:06:05.150Z,12.00
2018-12-19T15:08:45.069Z,8.47
2018-12-19T15:11:19.269Z,8.97
2018-12-19T15:13:54.258Z,8.00
2018-12-19T15:16:28.318Z,8.07
2018-12-19T15:19:02.616Z,8.80
2018-12-19T15:21:36.888Z,7.33
2018-12-19T15:24:11.226Z,8.60
2018-12-19T15:26:47.112Z,8.70
2018-12-19T15:29:21.911Z,8.67
2018-12-19T15:31:56.918Z,8.70
2018-12-19T15:34:31.180Z,8.10
2018-12-19T15:37:07.168Z,8.17
2018-12-19T15:39:41.952Z,8.90
2018-12-19T15:42:16.275Z,8.17
2018-12-19T15:44:50.718Z,9.50
2018-12-19T15:47:25.094Z,9.80
2018-12-19T15:50:05.626Z,11.37
2018-12-19T15:52:40.817Z,11.93
2018-12-19T15:55:15.224Z,9.80
2018-12-19T15:57:59.887Z,11.70
2018-12-19T16:00:37.520Z,12.20
2018-12-19T16:05:53.143Z,9.87
2018-12-19T16:08:28.743Z,10.37
2018-12-19T16:11:03.816Z,11.10
2018-12-19T16:25:31.082Z,10.17
2018-12-19T16:30:55.948Z,10.37
2018-12-19T16:33:30.097Z,9.73
2018-12-19T16:36:04.555Z,9.70
2018-12-19T16:38:44.069Z,9.67
2018-12-19T16:41:21.739Z,10.83
2018-12-19T16:43:56.225Z,12.20
2018-12-19T16:46:31.024Z,9.40
2018-12-19T16:49:05.643Z,11.20
2018-12-19T16:51:40.396Z,10.60
2018-12-19T16:54:15.669Z,10.20
2018-12-19T16:56:56.715Z,10.90
2018-12-19T16:59:32.447Z,11.60
2018-12-19T17:02:07.041Z,9.60
2018-12-19T17:04:41.499Z,8.43
2018-12-19T17:07:27.417Z,8.50
2018-12-19T17:10:02.757Z,10.00
2018-12-19T17:12:36.968Z,8.13
2018-12-19T17:15:11.387Z,9.60
2018-12-19T17:17:45.801Z,8.10
2018-12-19T17:20:20.450Z,9.40
2018-12-19T17:22:56.615Z,9.57
2018-12-19T17:25:31.090Z,8.23
2018-12-19T17:28:06.588Z,8.50
2018-12-19T17:30:42.149Z,8.00
2018-12-19T17:33:17.421Z,9.33
2018-12-19T17:35:51.461Z,8.80
2018-12-19T17:38:25.550Z,8.03
2018-12-19T17:41:01.664Z,9.60
2018-12-19T17:43:36.004Z,10.10
2018-12-19T17:46:10.185Z,9.50
2018-12-19T17:48:53.096Z,10.77
2018-12-19T17:51:27.437Z,9.57
2018-12-19T17:54:01.666Z,10.87
2018-12-19T17:56:36.042Z,10.63
2018-12-19T17:59:10.645Z,10.33
2018-12-19T18:01:44.813Z,9.23
2018-12-19T18:04:19.681Z,10.67
2018-12-19T18:06:55.588Z,11.70
2018-12-19T18:09:31.390Z,9.20
2018-12-19T18:12:05.463Z,9.00
2018-12-19T18:14:39.700Z,10.63
2018-12-19T18:17:13.988Z,11.03
2018-12-19T18:19:48.138Z,12.17
2018-12-19T18:22:23.333Z,9.87
2018-12-19T18:24:58.080Z,10.57
2018-12-19T18:27:32.195Z,8.70
2018-12-19T18:30:06.800Z,10.63
2018-12-19T18:32:42.038Z,12.53
2018-12-19T18:35:16.442Z,9.17
2018-12-19T18:37:51.089Z,9.93
2018-12-19T18:40:25.392Z,11.50
2018-12-19T18:43:00.197Z,11.07
2018-12-19T18:48:22.664Z,10.57
2018-12-19T18:50:56.781Z,10.63
2018-12-19T18:53:31.406Z,10.40
2018-12-19T18:56:05.803Z,8.07
2018-12-19T18:58:40.004Z,10.17
2018-12-19T19:01:14.280Z,10.27
2018-12-19T19:03:48.720Z,9.87
2018-12-19T19:06:23.082Z,9.40
2018-12-19T19:08:58.215Z,10.70
2018-12-19T19:11:32.384Z,11.17
2018-12-19T19:14:06.613Z,10.80
2018-12-19T19:16:40.884Z,8.87
2018-12-19T19:19:15.166Z,9.97
2018-12-19T19:21:49.398Z,12.53
2018-12-19T19:24:23.450Z,12.37
2018-12-19T19:26:57.562Z,12.43
2018-12-19T19:29:31.894Z,13.10
2018-12-19T19:32:06.015Z,13.03
2018-12-19T19:34:40.281Z,11.60
2018-12-19T19:37:14.637Z,11.10
2018-12-19T19:39:48.862Z,11.60
2018-12-19T19:42:23.202Z,11.23
2018-12-19T19:44:57.157Z,8.83
2018-12-19T19:47:31.232Z,12.10
2018-12-19T19:50:05.660Z,12.23
2018-12-19T19:52:39.864Z,13.50
2018-12-19T19:55:15.046Z,12.37
2018-12-19T19:57:49.208Z,11.50
2018-12-19T20:00:38.194Z,12.50
2018-12-19T20:03:12.485Z,11.47
2018-12-19T20:05:47.692Z,11.60
2018-12-19T20:08:21.770Z,11.80
2018-12-19T20:10:55.827Z,10.80
2018-12-19T20:13:33.242Z,12.23
2018-12-19T20:16:06.208Z,12.40
2018-12-19T20:18:40.508Z,12.53
2018-12-19T20:21:15.830Z,12.60
2018-12-19T20:23:49.802Z,13.33
2018-12-19T20:26:23.808Z,13.63
2018-12-19T20:28:58.073Z,13.50
2018-12-19T20:31:32.016Z,15.23
2018-12-19T20:34:06.047Z,13.80
2018-12-19T20:36:40.462Z,14.93
2018-12-19T20:39:14.680Z,15.47
2018-12-19T20:41:48.697Z,14.03
2018-12-19T20:44:22.809Z,14.97
2018-12-19T20:46:57.351Z,14.50
2018-12-19T20:49:31.816Z,15.63
2018-12-19T20:52:06.058Z,14.13
2018-12-19T20:54:40.376Z,13.77
2018-12-19T20:57:14.792Z,15.10
2018-12-19T20:59:48.889Z,14.07
2018-12-19T21:02:23.043Z,16.57
2018-12-19T21:04:57.234Z,15.10
2018-12-19T21:07:31.422Z,18.60
2018-12-19T21:10:06.040Z,17.30
2018-12-19T21:12:40.344Z,18.07
2018-12-19T21:15:14.368Z,19.73
2018-12-19T21:17:53.756Z,19.20
2018-12-19T21:20:27.988Z,20.47
2018-12-19T21:23:02.200Z,19.07
2018-12-19T21:25:36.536Z,20.77
2018-12-19T21:28:10.727Z,20.73
2018-12-19T21:30:44.942Z,19.47
2018-12-19T21:33:19.065Z,21.10
2018-12-19T21:35:53.151Z,19.80
2018-12-19T21:38:27.426Z,19.83
2018-12-19T21:41:01.715Z,20.30
2018-12-19T21:43:35.695Z,20.07
2018-12-19T21:46:09.981Z,22.53
2018-12-19T21:48:44.423Z,19.20
2018-12-19T21:51:19.288Z,20.07
2018-12-19T21:53:54.127Z,21.07
2018-12-19T21:56:28.342Z,21.97
2018-12-19T21:59:02.743Z,22.53
2018-12-19T22:01:37.075Z,20.60
2018-12-19T22:04:11.272Z,20.80
2018-12-19T22:06:45.379Z,22.83
2018-12-19T22:09:19.726Z,20.77
2018-12-19T22:11:53.899Z,21.77
2018-12-19T22:14:28.395Z,21.17
2018-12-19T22:17:09.173Z,21.70
2018-12-19T22:19:43.524Z,22.17
2018-12-19T22:22:18.216Z,20.47
2018-12-19T22:24:52.246Z,20.37
2018-12-19T22:27:26.287Z,21.90
2018-12-19T22:30:01.870Z,22.47
2018-12-19T22:32:36.016Z,23.50
2018-12-19T22:35:10.283Z,20.50
2018-12-19T22:37:44.319Z,21.03
2018-12-19T22:40:19.749Z,22.27
2018-12-19T22:42:53.962Z,22.07
2018-12-19T22:45:28.354Z,21.13
2018-12-19T22:48:04.106Z,21.47
2018-12-19T22:50:38.198Z,22.47
2018-12-19T22:53:12.524Z,22.60
2018-12-19T22:55:49.097Z,21.67
2018-12-19T22:58:23.221Z,20.50
2018-12-19T23:01:04.807Z,20.90
2018-12-19T23:06:35.625Z,20.73
2018-12-19T23:09:09.585Z,17.93
2018-12-19T23:11:43.590Z,20.87
2018-12-19T23:14:18.099Z,20.13
2018-12-19T23:16:52.378Z,21.37
2018-12-19T23:19:26.338Z,21.27
2018-12-19T23:22:01.067Z,21.10
2018-12-19T23:24:36.815Z,19.27
2018-12-19T23:27:10.945Z,20.77
2018-12-19T23:29:45.050Z,19.40
2018-12-19T23:32:23.266Z,17.50
2018-12-19T23:34:57.346Z,17.13
2018-12-19T23:37:32.668Z,17.40
2018-12-19T23:40:07.203Z,16.50
2018-12-19T23:42:41.283Z,19.53
2018-12-19T23:45:15.144Z,17.20
2018-12-19T23:47:49.121Z,15.60
2018-12-19T23:50:23.231Z,16.07
2018-12-19T23:52:57.121Z,15.60
2018-12-19T23:55:31.203Z,16.03
2018-12-19T23:58:05.283Z,15.30
